sensor_id;sensor_type;location;lat;lon;timestamp;P1;durP1;ratioP1;P2;durP2;ratioP2
75847;SDS011;65750;47.540;19.090;2023-02-15T00:00:02;5.95;;;3.47;;
75847;SDS011;65750;47.540;19.090;2023-02-15T00:02:31;6.28;;;3.58;;
75847;SDS011;65750;47.540;19.090;2023-02-15T00:04:58;5.80;;;3.35;;
75847;SDS011;65750;47.540;19.090;2023-02-15T00:07:25;6.78;;;4.00;;
75847;SDS011;65750;47.540;19.090;2023-02-15T00:09:52;6.57;;;3.70;;
75847;SDS011;65750;47.540;19.090;2023-02-15T00:12:21;5.75;;;3.42;;
75847;SDS011;65750;47.540;19.090;2023-02-15T00:14:49;6.40;;;3.87;;
75847;SDS011;65750;47.540;19.090;2023-02-15T00:17:16;5.62;;;3.58;;
75847;SDS011;65750;47.540;19.090;2023-02-15T00:19:43;7.12;;;3.60;;
75847;SDS011;65750;47.540;19.090;2023-02-15T00:22:11;7.43;;;3.77;;
75847;SDS011;65750;47.540;19.090;2023-02-15T00:24:38;6.82;;;3.50;;
75847;SDS011;65750;47.540;19.090;2023-02-15T00:27:05;5.93;;;3.95;;
75847;SDS011;65750;47.540;19.090;2023-02-15T00:29:35;6.40;;;3.62;;
75847;SDS011;65750;47.540;19.090;2023-02-15T00:32:03;6.40;;;3.75;;
75847;SDS011;65750;47.540;19.090;2023-02-15T00:34:31;6.60;;;4.00;;
75847;SDS011;65750;47.540;19.090;2023-02-15T00:36:59;7.12;;;3.80;;
75847;SDS011;65750;47.540;19.090;2023-02-15T00:39:26;7.95;;;4.07;;
75847;SDS011;65750;47.540;19.090;2023-02-15T00:41:54;7.25;;;4.28;;
75847;SDS011;65750;47.540;19.090;2023-02-15T00:44:21;7.78;;;4.10;;
75847;SDS011;65750;47.540;19.090;2023-02-15T00:46:50;8.13;;;4.60;;
75847;SDS011;65750;47.540;19.090;2023-02-15T00:49:19;6.28;;;4.07;;
75847;SDS011;65750;47.540;19.090;2023-02-15T00:51:47;7.93;;;4.20;;
75847;SDS011;65750;47.540;19.090;2023-02-15T00:54:14;7.12;;;4.07;;
75847;SDS011;65750;47.540;19.090;2023-02-15T00:56:41;7.40;;;4.00;;
75847;SDS011;65750;47.540;19.090;2023-02-15T00:59:08;6.47;;;3.93;;
75847;SDS011;65750;47.540;19.090;2023-02-15T01:01:36;7.12;;;4.15;;
75847;SDS011;65750;47.540;19.090;2023-02-15T01:04:04;7.45;;;4.43;;
75847;SDS011;65750;47.540;19.090;2023-02-15T01:06:31;7.62;;;4.70;;
75847;SDS011;65750;47.540;19.090;2023-02-15T01:08:59;7.00;;;4.60;;
75847;SDS011;65750;47.540;19.090;2023-02-15T01:11:26;7.03;;;4.30;;
75847;SDS011;65750;47.540;19.090;2023-02-15T01:13:54;7.32;;;4.18;;
75847;SDS011;65750;47.540;19.090;2023-02-15T01:16:23;7.90;;;5.00;;
75847;SDS011;65750;47.540;19.090;2023-02-15T01:18:52;7.25;;;4.43;;
75847;SDS011;65750;47.540;19.090;2023-02-15T01:21:22;7.47;;;4.62;;
75847;SDS011;65750;47.540;19.090;2023-02-15T01:23:49;6.80;;;4.43;;
75847;SDS011;65750;47.540;19.090;2023-02-15T01:26:17;7.75;;;5.00;;
75847;SDS011;65750;47.540;19.090;2023-02-15T01:28:44;7.43;;;4.90;;
75847;SDS011;65750;47.540;19.090;2023-02-15T01:31:12;7.70;;;4.30;;
75847;SDS011;65750;47.540;19.090;2023-02-15T01:33:40;7.70;;;5.10;;
75847;SDS011;65750;47.540;19.090;2023-02-15T01:36:08;7.50;;;4.77;;
75847;SDS011;65750;47.540;19.090;2023-02-15T01:38:39;7.15;;;4.37;;
75847;SDS011;65750;47.540;19.090;2023-02-15T01:41:07;8.60;;;5.30;;
75847;SDS011;65750;47.540;19.090;2023-02-15T01:43:49;7.35;;;4.65;;
75847;SDS011;65750;47.540;19.090;2023-02-15T01:46:19;7.22;;;5.00;;
75847;SDS011;65750;47.540;19.090;2023-02-15T01:48:49;7.63;;;5.03;;
75847;SDS011;65750;47.540;19.090;2023-02-15T01:51:18;7.97;;;5.03;;
75847;SDS011;65750;47.540;19.090;2023-02-15T01:53:50;7.60;;;5.10;;
75847;SDS011;65750;47.540;19.090;2023-02-15T01:56:19;7.35;;;4.87;;
75847;SDS011;65750;47.540;19.090;2023-02-15T01:58:48;7.32;;;4.70;;
75847;SDS011;65750;47.540;19.090;2023-02-15T02:01:16;6.97;;;4.57;;
75847;SDS011;65750;47.540;19.090;2023-02-15T02:03:46;8.25;;;5.35;;
75847;SDS011;65750;47.540;19.090;2023-02-15T02:06:16;8.10;;;5.40;;
75847;SDS011;65750;47.540;19.090;2023-02-15T02:08:44;8.75;;;5.00;;
75847;SDS011;65750;47.540;19.090;2023-02-15T02:11:13;8.25;;;5.78;;
75847;SDS011;65750;47.540;19.090;2023-02-15T02:13:45;7.93;;;5.40;;
75847;SDS011;65750;47.540;19.090;2023-02-15T02:16:13;8.35;;;5.28;;
75847;SDS011;65750;47.540;19.090;2023-02-15T02:18:45;8.30;;;4.93;;
75847;SDS011;65750;47.540;19.090;2023-02-15T02:27:32;8.33;;;5.30;;
75847;SDS011;65750;47.540;19.090;2023-02-15T02:30:06;7.75;;;5.45;;
75847;SDS011;65750;47.540;19.090;2023-02-15T02:32:55;8.27;;;5.40;;
75847;SDS011;65750;47.540;19.090;2023-02-15T02:35:38;8.43;;;5.40;;
75847;SDS011;65750;47.540;19.090;2023-02-15T02:38:10;9.23;;;5.72;;
75847;SDS011;65750;47.540;19.090;2023-02-15T02:40:43;7.53;;;5.23;;
75847;SDS011;65750;47.540;19.090;2023-02-15T02:43:17;9.60;;;5.85;;
75847;SDS011;65750;47.540;19.090;2023-02-15T02:45:50;8.10;;;5.68;;
75847;SDS011;65750;47.540;19.090;2023-02-15T02:48:22;8.27;;;5.20;;
75847;SDS011;65750;47.540;19.090;2023-02-15T02:50:51;8.05;;;5.47;;
75847;SDS011;65750;47.540;19.090;2023-02-15T02:53:18;8.50;;;5.60;;
75847;SDS011;65750;47.540;19.090;2023-02-15T02:55:46;10.52;;;5.90;;
75847;SDS011;65750;47.540;19.090;2023-02-15T02:58:14;7.78;;;5.55;;
75847;SDS011;65750;47.540;19.090;2023-02-15T03:00:45;8.32;;;5.47;;
75847;SDS011;65750;47.540;19.090;2023-02-15T03:03:19;9.38;;;6.18;;
75847;SDS011;65750;47.540;19.090;2023-02-15T03:05:50;8.53;;;5.90;;
75847;SDS011;65750;47.540;19.090;2023-02-15T03:08:19;8.23;;;5.70;;
75847;SDS011;65750;47.540;19.090;2023-02-15T03:10:48;8.75;;;5.53;;
75847;SDS011;65750;47.540;19.090;2023-02-15T03:13:19;8.60;;;6.00;;
75847;SDS011;65750;47.540;19.090;2023-02-15T03:15:47;8.20;;;5.90;;
75847;SDS011;65750;47.540;19.090;2023-02-15T03:18:31;10.23;;;6.00;;
75847;SDS011;65750;47.540;19.090;2023-02-15T03:21:03;9.10;;;6.28;;
75847;SDS011;65750;47.540;19.090;2023-02-15T03:23:32;9.68;;;6.35;;
75847;SDS011;65750;47.540;19.090;2023-02-15T03:26:00;9.73;;;6.15;;
75847;SDS011;65750;47.540;19.090;2023-02-15T03:28:30;9.00;;;6.15;;
75847;SDS011;65750;47.540;19.090;2023-02-15T03:31:01;9.47;;;6.10;;
75847;SDS011;65750;47.540;19.090;2023-02-15T03:33:31;10.23;;;6.30;;
75847;SDS011;65750;47.540;19.090;2023-02-15T03:35:59;8.55;;;6.12;;
75847;SDS011;65750;47.540;19.090;2023-02-15T03:38:30;9.38;;;5.80;;
75847;SDS011;65750;47.540;19.090;2023-02-15T03:41:02;9.85;;;6.50;;
75847;SDS011;65750;47.540;19.090;2023-02-15T03:43:42;8.60;;;6.00;;
75847;SDS011;65750;47.540;19.090;2023-02-15T03:46:12;9.05;;;6.18;;
75847;SDS011;65750;47.540;19.090;2023-02-15T03:48:47;9.25;;;6.30;;
75847;SDS011;65750;47.540;19.090;2023-02-15T03:51:18;8.80;;;6.37;;
75847;SDS011;65750;47.540;19.090;2023-02-15T03:54:02;9.57;;;6.30;;
75847;SDS011;65750;47.540;19.090;2023-02-15T03:56:31;10.07;;;6.50;;
75847;SDS011;65750;47.540;19.090;2023-02-15T03:59:00;10.73;;;6.50;;
75847;SDS011;65750;47.540;19.090;2023-02-15T04:01:47;9.18;;;6.32;;
75847;SDS011;65750;47.540;19.090;2023-02-15T04:04:30;8.95;;;6.32;;
75847;SDS011;65750;47.540;19.090;2023-02-15T04:06:59;9.77;;;6.87;;
75847;SDS011;65750;47.540;19.090;2023-02-15T04:09:26;9.70;;;6.57;;
75847;SDS011;65750;47.540;19.090;2023-02-15T04:12:11;10.38;;;7.10;;
75847;SDS011;65750;47.540;19.090;2023-02-15T04:14:38;10.27;;;6.75;;
75847;SDS011;65750;47.540;19.090;2023-02-15T04:17:23;9.32;;;6.28;;
75847;SDS011;65750;47.540;19.090;2023-02-15T04:19:52;10.45;;;6.80;;
75847;SDS011;65750;47.540;19.090;2023-02-15T04:22:37;9.67;;;6.63;;
75847;SDS011;65750;47.540;19.090;2023-02-15T04:25:21;9.38;;;6.78;;
75847;SDS011;65750;47.540;19.090;2023-02-15T04:27:50;9.80;;;6.68;;
75847;SDS011;65750;47.540;19.090;2023-02-15T04:30:18;11.12;;;7.32;;
75847;SDS011;65750;47.540;19.090;2023-02-15T04:32:46;11.30;;;6.93;;
75847;SDS011;65750;47.540;19.090;2023-02-15T04:35:15;9.73;;;6.83;;
75847;SDS011;65750;47.540;19.090;2023-02-15T04:37:43;9.80;;;6.82;;
75847;SDS011;65750;47.540;19.090;2023-02-15T04:40:11;9.57;;;6.80;;
75847;SDS011;65750;47.540;19.090;2023-02-15T04:42:42;11.00;;;7.30;;
75847;SDS011;65750;47.540;19.090;2023-02-15T04:45:10;10.27;;;7.03;;
75847;SDS011;65750;47.540;19.090;2023-02-15T04:47:36;9.80;;;6.73;;
75847;SDS011;65750;47.540;19.090;2023-02-15T04:50:04;10.35;;;7.40;;
75847;SDS011;65750;47.540;19.090;2023-02-15T04:52:34;10.05;;;7.00;;
75847;SDS011;65750;47.540;19.090;2023-02-15T04:55:01;10.02;;;6.57;;
75847;SDS011;65750;47.540;19.090;2023-02-15T04:57:29;10.48;;;7.37;;
75847;SDS011;65750;47.540;19.090;2023-02-15T04:59:56;9.60;;;6.83;;
75847;SDS011;65750;47.540;19.090;2023-02-15T05:02:24;11.05;;;7.37;;
75847;SDS011;65750;47.540;19.090;2023-02-15T05:04:51;11.68;;;6.60;;
75847;SDS011;65750;47.540;19.090;2023-02-15T05:07:18;10.57;;;7.03;;
75847;SDS011;65750;47.540;19.090;2023-02-15T05:09:48;11.30;;;7.55;;
75847;SDS011;65750;47.540;19.090;2023-02-15T05:12:15;12.17;;;8.07;;
75847;SDS011;65750;47.540;19.090;2023-02-15T05:14:42;11.18;;;7.93;;
75847;SDS011;65750;47.540;19.090;2023-02-15T05:17:09;10.10;;;7.35;;
75847;SDS011;65750;47.540;19.090;2023-02-15T05:19:36;11.18;;;7.68;;
75847;SDS011;65750;47.540;19.090;2023-02-15T05:22:03;12.95;;;8.20;;
75847;SDS011;65750;47.540;19.090;2023-02-15T05:24:30;17.37;;;8.47;;
75847;SDS011;65750;47.540;19.090;2023-02-15T05:27:17;14.98;;;8.77;;
75847;SDS011;65750;47.540;19.090;2023-02-15T05:30:16;14.60;;;8.60;;
75847;SDS011;65750;47.540;19.090;2023-02-15T05:32:44;12.95;;;8.15;;
75847;SDS011;65750;47.540;19.090;2023-02-15T05:35:11;12.65;;;8.40;;
75847;SDS011;65750;47.540;19.090;2023-02-15T05:37:40;15.60;;;8.13;;
75847;SDS011;65750;47.540;19.090;2023-02-15T05:40:07;13.73;;;8.32;;
75847;SDS011;65750;47.540;19.090;2023-02-15T05:42:36;12.27;;;7.80;;
75847;SDS011;65750;47.540;19.090;2023-02-15T05:45:04;14.43;;;8.95;;
75847;SDS011;65750;47.540;19.090;2023-02-15T05:47:32;15.10;;;9.13;;
75847;SDS011;65750;47.540;19.090;2023-02-15T05:49:59;13.53;;;8.60;;
75847;SDS011;65750;47.540;19.090;2023-02-15T05:52:29;13.45;;;8.15;;
75847;SDS011;65750;47.540;19.090;2023-02-15T05:54:56;13.73;;;8.57;;
75847;SDS011;65750;47.540;19.090;2023-02-15T05:57:25;17.50;;;9.38;;
75847;SDS011;65750;47.540;19.090;2023-02-15T05:59:54;21.25;;;9.45;;
75847;SDS011;65750;47.540;19.090;2023-02-15T06:02:21;22.87;;;10.33;;
75847;SDS011;65750;47.540;19.090;2023-02-15T06:04:48;26.17;;;10.80;;
75847;SDS011;65750;47.540;19.090;2023-02-15T06:07:15;28.80;;;11.35;;
75847;SDS011;65750;47.540;19.090;2023-02-15T06:09:42;23.48;;;10.80;;
75847;SDS011;65750;47.540;19.090;2023-02-15T06:12:10;25.62;;;10.50;;
75847;SDS011;65750;47.540;19.090;2023-02-15T06:14:37;24.37;;;10.17;;
75847;SDS011;65750;47.540;19.090;2023-02-15T06:17:05;23.98;;;11.00;;
75847;SDS011;65750;47.540;19.090;2023-02-15T06:19:33;25.85;;;10.98;;
75847;SDS011;65750;47.540;19.090;2023-02-15T06:22:00;26.35;;;10.98;;
75847;SDS011;65750;47.540;19.090;2023-02-15T06:24:27;22.23;;;10.90;;
75847;SDS011;65750;47.540;19.090;2023-02-15T06:26:55;28.20;;;10.90;;
75847;SDS011;65750;47.540;19.090;2023-02-15T06:29:22;22.80;;;10.20;;
75847;SDS011;65750;47.540;19.090;2023-02-15T06:31:49;24.77;;;11.30;;
75847;SDS011;65750;47.540;19.090;2023-02-15T06:34:18;23.75;;;10.95;;
75847;SDS011;65750;47.540;19.090;2023-02-15T06:36:45;23.50;;;10.93;;
75847;SDS011;65750;47.540;19.090;2023-02-15T06:39:12;21.63;;;10.27;;
75847;SDS011;65750;47.540;19.090;2023-02-15T06:41:39;22.90;;;11.05;;
75847;SDS011;65750;47.540;19.090;2023-02-15T06:44:06;23.23;;;11.00;;
75847;SDS011;65750;47.540;19.090;2023-02-15T06:46:34;21.05;;;10.55;;
75847;SDS011;65750;47.540;19.090;2023-02-15T06:49:01;21.37;;;11.20;;
75847;SDS011;65750;47.540;19.090;2023-02-15T06:51:30;21.10;;;11.40;;
75847;SDS011;65750;47.540;19.090;2023-02-15T06:53:57;22.23;;;10.95;;
75847;SDS011;65750;47.540;19.090;2023-02-15T06:56:24;19.55;;;10.60;;
75847;SDS011;65750;47.540;19.090;2023-02-15T06:58:51;19.80;;;10.57;;
75847;SDS011;65750;47.540;19.090;2023-02-15T07:01:18;19.42;;;10.63;;
75847;SDS011;65750;47.540;19.090;2023-02-15T07:03:46;19.93;;;10.37;;
75847;SDS011;65750;47.540;19.090;2023-02-15T07:06:13;16.85;;;10.00;;
75847;SDS011;65750;47.540;19.090;2023-02-15T07:08:41;19.17;;;11.50;;
75847;SDS011;65750;47.540;19.090;2023-02-15T07:11:08;20.17;;;10.45;;
75847;SDS011;65750;47.540;19.090;2023-02-15T07:13:56;19.05;;;10.63;;
75847;SDS011;65750;47.540;19.090;2023-02-15T07:16:23;20.60;;;10.50;;
75847;SDS011;65750;47.540;19.090;2023-02-15T07:18:50;18.33;;;10.30;;
75847;SDS011;65750;47.540;19.090;2023-02-15T07:21:17;20.35;;;10.55;;
75847;SDS011;65750;47.540;19.090;2023-02-15T07:23:46;26.37;;;11.27;;
75847;SDS011;65750;47.540;19.090;2023-02-15T07:26:13;20.55;;;11.70;;
75847;SDS011;65750;47.540;19.090;2023-02-15T07:28:40;17.23;;;10.77;;
75847;SDS011;65750;47.540;19.090;2023-02-15T07:31:08;20.17;;;11.18;;
75847;SDS011;65750;47.540;19.090;2023-02-15T07:33:35;21.10;;;11.25;;
75847;SDS011;65750;47.540;19.090;2023-02-15T07:36:02;22.23;;;11.23;;
75847;SDS011;65750;47.540;19.090;2023-02-15T07:38:32;24.45;;;11.75;;
75847;SDS011;65750;47.540;19.090;2023-02-15T07:41:01;19.93;;;10.63;;
75847;SDS011;65750;47.540;19.090;2023-02-15T07:43:29;18.12;;;10.90;;
75847;SDS011;65750;47.540;19.090;2023-02-15T07:45:58;19.85;;;10.70;;
75847;SDS011;65750;47.540;19.090;2023-02-15T07:48:26;24.40;;;10.60;;
75847;SDS011;65750;47.540;19.090;2023-02-15T07:50:53;24.45;;;12.02;;
75847;SDS011;65750;47.540;19.090;2023-02-15T07:53:21;37.10;;;14.00;;
75847;SDS011;65750;47.540;19.090;2023-02-15T07:55:48;36.88;;;14.85;;
75847;SDS011;65750;47.540;19.090;2023-02-15T07:58:16;37.60;;;14.95;;
75847;SDS011;65750;47.540;19.090;2023-02-15T08:00:44;31.92;;;13.65;;
75847;SDS011;65750;47.540;19.090;2023-02-15T08:03:23;32.10;;;14.43;;
75847;SDS011;65750;47.540;19.090;2023-02-15T08:05:55;34.93;;;13.77;;
75847;SDS011;65750;47.540;19.090;2023-02-15T08:08:22;31.83;;;14.45;;
75847;SDS011;65750;47.540;19.090;2023-02-15T08:11:02;27.55;;;13.65;;
75847;SDS011;65750;47.540;19.090;2023-02-15T08:13:50;29.30;;;12.88;;
75847;SDS011;65750;47.540;19.090;2023-02-15T08:16:22;31.58;;;13.75;;
75847;SDS011;65750;47.540;19.090;2023-02-15T08:18:50;30.37;;;13.60;;
75847;SDS011;65750;47.540;19.090;2023-02-15T08:21:17;31.55;;;13.98;;
75847;SDS011;65750;47.540;19.090;2023-02-15T08:23:45;25.58;;;13.48;;
75847;SDS011;65750;47.540;19.090;2023-02-15T08:26:12;26.37;;;12.82;;
75847;SDS011;65750;47.540;19.090;2023-02-15T08:28:41;31.77;;;13.30;;
75847;SDS011;65750;47.540;19.090;2023-02-15T08:31:10;27.70;;;13.27;;
75847;SDS011;65750;47.540;19.090;2023-02-15T08:33:39;29.27;;;12.37;;
75847;SDS011;65750;47.540;19.090;2023-02-15T08:36:07;27.92;;;13.10;;
75847;SDS011;65750;47.540;19.090;2023-02-15T08:38:36;29.48;;;13.77;;
75847;SDS011;65750;47.540;19.090;2023-02-15T08:41:11;28.45;;;12.45;;
75847;SDS011;65750;47.540;19.090;2023-02-15T08:43:39;25.23;;;12.80;;
75847;SDS011;65750;47.540;19.090;2023-02-15T08:46:07;26.62;;;12.25;;
75847;SDS011;65750;47.540;19.090;2023-02-15T08:48:36;26.17;;;13.45;;
75847;SDS011;65750;47.540;19.090;2023-02-15T08:51:05;23.87;;;12.27;;
75847;SDS011;65750;47.540;19.090;2023-02-15T08:53:33;24.80;;;12.23;;
75847;SDS011;65750;47.540;19.090;2023-02-15T08:56:00;24.83;;;11.73;;
75847;SDS011;65750;47.540;19.090;2023-02-15T08:58:28;26.17;;;13.10;;
75847;SDS011;65750;47.540;19.090;2023-02-15T09:00:56;24.80;;;12.23;;
75847;SDS011;65750;47.540;19.090;2023-02-15T09:03:23;24.45;;;11.40;;
75847;SDS011;65750;47.540;19.090;2023-02-15T09:05:57;22.92;;;11.80;;
75847;SDS011;65750;47.540;19.090;2023-02-15T09:08:26;24.67;;;11.80;;
75847;SDS011;65750;47.540;19.090;2023-02-15T09:10:53;22.98;;;11.88;;
75847;SDS011;65750;47.540;19.090;2023-02-15T09:13:20;22.30;;;11.98;;
75847;SDS011;65750;47.540;19.090;2023-02-15T09:15:48;22.98;;;11.88;;
75847;SDS011;65750;47.540;19.090;2023-02-15T09:18:15;24.50;;;12.35;;
75847;SDS011;65750;47.540;19.090;2023-02-15T09:20:43;24.43;;;12.10;;
75847;SDS011;65750;47.540;19.090;2023-02-15T09:23:12;22.02;;;12.00;;
75847;SDS011;65750;47.540;19.090;2023-02-15T09:25:41;21.48;;;11.85;;
75847;SDS011;65750;47.540;19.090;2023-02-15T09:28:08;19.65;;;11.32;;
75847;SDS011;65750;47.540;19.090;2023-02-15T09:30:35;22.35;;;11.70;;
75847;SDS011;65750;47.540;19.090;2023-02-15T09:33:02;21.67;;;11.43;;
75847;SDS011;65750;47.540;19.090;2023-02-15T09:35:29;23.67;;;12.27;;
75847;SDS011;65750;47.540;19.090;2023-02-15T09:37:57;21.42;;;11.70;;
75847;SDS011;65750;47.540;19.090;2023-02-15T09:40:25;19.52;;;11.75;;
75847;SDS011;65750;47.540;19.090;2023-02-15T09:45:47;21.40;;;11.50;;
75847;SDS011;65750;47.540;19.090;2023-02-15T09:48:33;21.12;;;11.40;;
75847;SDS011;65750;47.540;19.090;2023-02-15T09:51:12;20.37;;;11.50;;
75847;SDS011;65750;47.540;19.090;2023-02-15T09:53:53;22.35;;;10.95;;
75847;SDS011;65750;47.540;19.090;2023-02-15T09:56:28;22.20;;;11.85;;
75847;SDS011;65750;47.540;19.090;2023-02-15T09:59:03;18.23;;;10.93;;
75847;SDS011;65750;47.540;19.090;2023-02-15T10:01:39;18.65;;;11.10;;
75847;SDS011;65750;47.540;19.090;2023-02-15T10:04:15;22.55;;;11.50;;
75847;SDS011;65750;47.540;19.090;2023-02-15T10:06:53;20.27;;;11.32;;
75847;SDS011;65750;47.540;19.090;2023-02-15T10:09:33;20.85;;;11.27;;
75847;SDS011;65750;47.540;19.090;2023-02-15T10:12:11;20.80;;;11.17;;
75847;SDS011;65750;47.540;19.090;2023-02-15T10:17:54;22.42;;;11.07;;
75847;SDS011;65750;47.540;19.090;2023-02-15T10:20:31;19.27;;;11.63;;
75847;SDS011;65750;47.540;19.090;2023-02-15T10:23:13;19.62;;;10.88;;
75847;SDS011;65750;47.540;19.090;2023-02-15T10:25:51;19.27;;;10.97;;
75847;SDS011;65750;47.540;19.090;2023-02-15T10:28:26;18.00;;;10.48;;
75847;SDS011;65750;47.540;19.090;2023-02-15T10:30:59;19.37;;;11.45;;
75847;SDS011;65750;47.540;19.090;2023-02-15T10:33:37;17.98;;;10.25;;
75847;SDS011;65750;47.540;19.090;2023-02-15T10:36:09;17.70;;;10.27;;
75847;SDS011;65750;47.540;19.090;2023-02-15T10:38:44;18.43;;;10.53;;
75847;SDS011;65750;47.540;19.090;2023-02-15T10:41:19;17.95;;;11.23;;
75847;SDS011;65750;47.540;19.090;2023-02-15T10:44:08;18.80;;;10.57;;
75847;SDS011;65750;47.540;19.090;2023-02-15T10:46:56;19.73;;;10.75;;
75847;SDS011;65750;47.540;19.090;2023-02-15T10:49:33;18.27;;;10.65;;
75847;SDS011;65750;47.540;19.090;2023-02-15T10:52:10;18.90;;;10.50;;
75847;SDS011;65750;47.540;19.090;2023-02-15T10:54:45;16.67;;;10.60;;
75847;SDS011;65750;47.540;19.090;2023-02-15T10:57:17;17.50;;;10.77;;
75847;SDS011;65750;47.540;19.090;2023-02-15T10:59:55;16.67;;;10.15;;
75847;SDS011;65750;47.540;19.090;2023-02-15T11:02:34;17.70;;;9.90;;
75847;SDS011;65750;47.540;19.090;2023-02-15T11:05:20;20.10;;;11.03;;
75847;SDS011;65750;47.540;19.090;2023-02-15T11:07:53;15.57;;;10.02;;
75847;SDS011;65750;47.540;19.090;2023-02-15T11:10:24;17.37;;;10.18;;
75847;SDS011;65750;47.540;19.090;2023-02-15T11:12:55;17.60;;;10.13;;
75847;SDS011;65750;47.540;19.090;2023-02-15T11:15:26;16.42;;;10.32;;
75847;SDS011;65750;47.540;19.090;2023-02-15T11:17:57;16.23;;;10.23;;
75847;SDS011;65750;47.540;19.090;2023-02-15T11:20:27;16.55;;;10.25;;
75847;SDS011;65750;47.540;19.090;2023-02-15T11:22:57;16.27;;;10.15;;
75847;SDS011;65750;47.540;19.090;2023-02-15T11:25:25;17.30;;;10.13;;
75847;SDS011;65750;47.540;19.090;2023-02-15T11:27:56;15.85;;;9.77;;
75847;SDS011;65750;47.540;19.090;2023-02-15T11:30:24;16.13;;;9.77;;
75847;SDS011;65750;47.540;19.090;2023-02-15T11:32:55;18.20;;;10.07;;
75847;SDS011;65750;47.540;19.090;2023-02-15T11:35:25;16.60;;;10.15;;
75847;SDS011;65750;47.540;19.090;2023-02-15T11:37:54;17.52;;;10.07;;
75847;SDS011;65750;47.540;19.090;2023-02-15T11:40:26;16.98;;;9.73;;
75847;SDS011;65750;47.540;19.090;2023-02-15T11:42:55;15.47;;;9.50;;
75847;SDS011;65750;47.540;19.090;2023-02-15T11:45:27;16.77;;;9.73;;
75847;SDS011;65750;47.540;19.090;2023-02-15T11:47:56;17.08;;;9.95;;
75847;SDS011;65750;47.540;19.090;2023-02-15T11:50:24;14.13;;;9.07;;
75847;SDS011;65750;47.540;19.090;2023-02-15T11:52:54;18.20;;;10.00;;
75847;SDS011;65750;47.540;19.090;2023-02-15T11:55:24;15.47;;;9.70;;
75847;SDS011;65750;47.540;19.090;2023-02-15T11:57:53;16.37;;;9.88;;
75847;SDS011;65750;47.540;19.090;2023-02-15T12:00:24;16.12;;;9.65;;
75847;SDS011;65750;47.540;19.090;2023-02-15T12:03:02;14.87;;;9.60;;
75847;SDS011;65750;47.540;19.090;2023-02-15T12:05:35;14.77;;;9.13;;
75847;SDS011;65750;47.540;19.090;2023-02-15T12:08:08;16.20;;;9.63;;
75847;SDS011;65750;47.540;19.090;2023-02-15T12:10:40;13.57;;;9.00;;
75847;SDS011;65750;47.540;19.090;2023-02-15T12:13:11;16.20;;;9.52;;
75847;SDS011;65750;47.540;19.090;2023-02-15T12:15:42;14.77;;;9.32;;
75847;SDS011;65750;47.540;19.090;2023-02-15T12:18:17;14.05;;;9.48;;
75847;SDS011;65750;47.540;19.090;2023-02-15T12:20:47;16.77;;;9.80;;
75847;SDS011;65750;47.540;19.090;2023-02-15T12:23:16;13.80;;;8.73;;
75847;SDS011;65750;47.540;19.090;2023-02-15T12:25:48;15.07;;;9.00;;
75847;SDS011;65750;47.540;19.090;2023-02-15T12:28:21;12.98;;;8.57;;
75847;SDS011;65750;47.540;19.090;2023-02-15T12:30:53;14.87;;;9.15;;
75847;SDS011;65750;47.540;19.090;2023-02-15T12:33:25;15.33;;;8.80;;
75847;SDS011;65750;47.540;19.090;2023-02-15T12:35:56;14.52;;;9.45;;
75847;SDS011;65750;47.540;19.090;2023-02-15T12:38:26;17.10;;;9.80;;
75847;SDS011;65750;47.540;19.090;2023-02-15T12:40:56;14.30;;;9.38;;
75847;SDS011;65750;47.540;19.090;2023-02-15T12:43:25;13.95;;;9.18;;
75847;SDS011;65750;47.540;19.090;2023-02-15T12:45:55;15.67;;;9.23;;
75847;SDS011;65750;47.540;19.090;2023-02-15T12:48:40;14.85;;;9.05;;
75847;SDS011;65750;47.540;19.090;2023-02-15T12:51:07;15.43;;;9.25;;
75847;SDS011;65750;47.540;19.090;2023-02-15T12:53:35;15.30;;;9.27;;
75847;SDS011;65750;47.540;19.090;2023-02-15T12:56:04;14.75;;;8.90;;
75847;SDS011;65750;47.540;19.090;2023-02-15T12:58:32;14.50;;;8.80;;
75847;SDS011;65750;47.540;19.090;2023-02-15T13:01:09;16.37;;;9.00;;
75847;SDS011;65750;47.540;19.090;2023-02-15T13:03:54;15.10;;;9.23;;
75847;SDS011;65750;47.540;19.090;2023-02-15T13:06:22;15.13;;;9.00;;
75847;SDS011;65750;47.540;19.090;2023-02-15T13:08:50;14.40;;;8.77;;
75847;SDS011;65750;47.540;19.090;2023-02-15T13:11:19;13.73;;;8.97;;
75847;SDS011;65750;47.540;19.090;2023-02-15T13:13:50;14.38;;;9.30;;
75847;SDS011;65750;47.540;19.090;2023-02-15T13:16:21;14.05;;;8.73;;
75847;SDS011;65750;47.540;19.090;2023-02-15T13:18:53;12.60;;;8.43;;
75847;SDS011;65750;47.540;19.090;2023-02-15T13:21:21;15.32;;;8.73;;
75847;SDS011;65750;47.540;19.090;2023-02-15T13:23:52;12.20;;;8.17;;
75847;SDS011;65750;47.540;19.090;2023-02-15T13:26:23;13.45;;;8.55;;
75847;SDS011;65750;47.540;19.090;2023-02-15T13:28:53;15.35;;;9.02;;
75847;SDS011;65750;47.540;19.090;2023-02-15T13:31:24;13.60;;;8.93;;
75847;SDS011;65750;47.540;19.090;2023-02-15T13:33:54;12.65;;;8.48;;
75847;SDS011;65750;47.540;19.090;2023-02-15T13:36:26;13.07;;;8.43;;
75847;SDS011;65750;47.540;19.090;2023-02-15T13:39:02;13.98;;;8.95;;
75847;SDS011;65750;47.540;19.090;2023-02-15T13:41:39;13.65;;;8.52;;
75847;SDS011;65750;47.540;19.090;2023-02-15T13:44:15;11.48;;;8.50;;
75847;SDS011;65750;47.540;19.090;2023-02-15T13:46:51;14.48;;;8.85;;
75847;SDS011;65750;47.540;19.090;2023-02-15T13:49:29;12.57;;;8.33;;
75847;SDS011;65750;47.540;19.090;2023-02-15T13:52:06;13.82;;;8.98;;
75847;SDS011;65750;47.540;19.090;2023-02-15T13:54:50;14.38;;;8.60;;
75847;SDS011;65750;47.540;19.090;2023-02-15T13:57:38;13.60;;;8.75;;
75847;SDS011;65750;47.540;19.090;2023-02-15T14:00:14;13.70;;;8.80;;
75847;SDS011;65750;47.540;19.090;2023-02-15T14:08:33;12.23;;;8.35;;
75847;SDS011;65750;47.540;19.090;2023-02-15T14:11:07;14.10;;;8.77;;
75847;SDS011;65750;47.540;19.090;2023-02-15T14:13:42;14.55;;;8.38;;
75847;SDS011;65750;47.540;19.090;2023-02-15T14:16:30;15.27;;;8.73;;
75847;SDS011;65750;47.540;19.090;2023-02-15T14:19:09;12.10;;;8.25;;
75847;SDS011;65750;47.540;19.090;2023-02-15T14:21:42;13.57;;;8.32;;
75847;SDS011;65750;47.540;19.090;2023-02-15T14:24:18;12.95;;;9.18;;
75847;SDS011;65750;47.540;19.090;2023-02-15T14:26:52;18.45;;;7.85;;
75847;SDS011;65750;47.540;19.090;2023-02-15T14:29:27;15.43;;;8.93;;
75847;SDS011;65750;47.540;19.090;2023-02-15T14:32:02;13.30;;;8.45;;
75847;SDS011;65750;47.540;19.090;2023-02-15T14:34:35;13.60;;;9.13;;
75847;SDS011;65750;47.540;19.090;2023-02-15T14:37:09;13.85;;;8.80;;
75847;SDS011;65750;47.540;19.090;2023-02-15T14:39:41;13.88;;;8.50;;
75847;SDS011;65750;47.540;19.090;2023-02-15T14:42:30;11.83;;;8.30;;
75847;SDS011;65750;47.540;19.090;2023-02-15T14:45:04;12.65;;;8.25;;
75847;SDS011;65750;47.540;19.090;2023-02-15T14:47:40;11.98;;;8.85;;
75847;SDS011;65750;47.540;19.090;2023-02-15T14:53:32;13.62;;;8.85;;
75847;SDS011;65750;47.540;19.090;2023-02-15T14:56:16;13.77;;;8.63;;
75847;SDS011;65750;47.540;19.090;2023-02-15T14:58:55;14.27;;;9.00;;
75847;SDS011;65750;47.540;19.090;2023-02-15T15:01:25;15.30;;;8.80;;
75847;SDS011;65750;47.540;19.090;2023-02-15T15:03:55;14.50;;;9.13;;